createdAt,value
2023-01-21T00:00:52.563Z,14.23
2023-01-21T00:03:42.409Z,12.20
2023-01-21T00:06:24.571Z,12.55
2023-01-21T00:09:12.454Z,12.48
2023-01-21T00:12:01.383Z,11.80
2023-01-21T00:14:43.297Z,11.07
2023-01-21T00:17:32.404Z,12.45
2023-01-21T00:20:15.829Z,11.38
2023-01-21T00:23:05.366Z,13.57
2023-01-21T00:25:50.304Z,12.63
2023-01-21T00:28:39.374Z,12.88
2023-01-21T00:31:21.965Z,12.27
2023-01-21T00:34:10.395Z,13.23
2023-01-21T00:37:00.371Z,12.93
2023-01-21T00:39:43.159Z,12.93
2023-01-21T00:42:31.358Z,12.45
2023-01-21T00:45:14.618Z,11.07
2023-01-21T00:48:02.378Z,12.40
2023-01-21T00:50:44.662Z,12.40
2023-01-21T00:53:34.370Z,12.05
2023-01-21T00:56:17.560Z,13.00
2023-01-21T00:59:05.388Z,13.32
2023-01-21T01:01:47.703Z,13.45
2023-01-21T01:04:35.437Z,14.70
2023-01-21T01:07:25.371Z,12.50
2023-01-21T01:10:09.729Z,13.32
2023-01-21T01:12:58.451Z,13.38
2023-01-21T01:15:40.371Z,13.98
2023-01-21T01:18:29.450Z,14.02
2023-01-21T01:21:13.869Z,14.25
2023-01-21T01:24:11.350Z,13.00
2023-01-21T01:26:54.674Z,13.73
2023-01-21T01:29:43.378Z,15.05
2023-01-21T01:32:32.409Z,13.50
2023-01-21T01:35:14.654Z,14.23
2023-01-21T01:38:03.370Z,14.07
2023-01-21T01:40:46.073Z,15.80
2023-01-21T01:43:59.450Z,14.55
2023-01-21T01:46:43.684Z,15.23
2023-01-21T01:49:32.397Z,12.88
2023-01-21T01:52:15.545Z,15.38
2023-01-21T01:55:08.446Z,13.73
2023-01-21T01:58:04.426Z,12.90
2023-01-21T02:00:47.965Z,14.70
2023-01-21T02:03:57.418Z,13.65
2023-01-21T02:06:40.895Z,13.93
2023-01-21T02:09:29.426Z,12.38
2023-01-21T02:12:24.476Z,14.60
2023-01-21T02:15:14.390Z,14.77
2023-01-21T02:18:10.667Z,15.43
2023-01-21T02:21:41.394Z,11.57
2023-01-21T02:25:23.554Z,15.18
2023-01-21T02:28:36.278Z,14.50
2023-01-21T02:32:00.420Z,11.63
2023-01-21T02:34:49.372Z,14.77
2023-01-21T02:37:43.430Z,14.38
2023-01-21T02:40:34.303Z,14.60
2023-01-21T02:43:20.411Z,13.55
2023-01-21T02:46:14.406Z,15.23
2023-01-21T02:49:00.440Z,14.90
2023-01-21T02:51:51.455Z,16.23
2023-01-21T02:57:50.500Z,12.40
2023-01-21T03:01:01.437Z,15.13
2023-01-21T03:04:09.591Z,14.57
2023-01-21T03:07:15.390Z,14.98
2023-01-21T03:10:24.389Z,14.93
2023-01-21T03:13:20.417Z,14.00
2023-01-21T03:16:21.141Z,14.90
2023-01-21T03:19:13.945Z,16.80
2023-01-21T03:22:04.492Z,16.15
2023-01-21T03:24:58.578Z,13.63
2023-01-21T03:27:41.460Z,16.73
2023-01-21T03:30:26.558Z,14.38
2023-01-21T03:33:17.380Z,16.42
2023-01-21T03:36:02.829Z,15.82
2023-01-21T03:38:57.475Z,16.17
2023-01-21T03:41:41.701Z,15.18
2023-01-21T03:44:30.418Z,14.95
2023-01-21T03:47:21.179Z,15.73
2023-01-21T03:50:13.418Z,15.15
2023-01-21T03:52:55.780Z,15.15
2023-01-21T03:55:44.430Z,15.20
2023-01-21T03:58:27.927Z,16.38
2023-01-21T04:01:16.462Z,15.20
2023-01-21T04:04:06.718Z,15.55
2023-01-21T04:06:48.752Z,15.35
2023-01-21T04:09:37.424Z,13.45
2023-01-21T04:12:19.735Z,16.70
2023-01-21T04:15:09.449Z,17.60
2023-01-21T04:17:51.656Z,16.45
2023-01-21T04:20:39.503Z,17.70
2023-01-21T04:23:21.633Z,16.40
2023-01-21T04:26:09.439Z,15.80
2023-01-21T04:28:58.520Z,15.50
2023-01-21T04:31:41.709Z,15.57
2023-01-21T04:34:30.478Z,17.67
2023-01-21T04:37:12.449Z,15.48
2023-01-21T04:40:01.581Z,17.13
2023-01-21T04:42:44.050Z,15.88
2023-01-21T04:45:32.503Z,16.52
2023-01-21T04:48:15.737Z,15.77
2023-01-21T04:51:04.453Z,15.93
2023-01-21T04:53:46.286Z,14.98
2023-01-21T04:56:35.446Z,16.58
2023-01-21T04:59:23.461Z,17.65
2023-01-21T05:02:05.720Z,17.38
2023-01-21T05:04:55.432Z,16.67
2023-01-21T05:07:37.737Z,15.55
2023-01-21T05:10:26.438Z,16.60
2023-01-21T05:13:08.671Z,16.60
2023-01-21T05:15:57.456Z,17.88
2023-01-21T05:18:40.717Z,17.45
2023-01-21T05:21:30.495Z,17.92
2023-01-21T05:24:19.467Z,17.35
2023-01-21T05:27:02.193Z,16.60
2023-01-21T05:29:50.437Z,18.77
2023-01-21T05:32:32.447Z,15.57
2023-01-21T05:35:25.517Z,17.90
2023-01-21T05:38:08.743Z,17.83
2023-01-21T05:40:57.474Z,15.93
2023-01-21T05:43:39.613Z,16.63
2023-01-21T05:46:28.641Z,16.55
2023-01-21T05:49:17.536Z,16.92
2023-01-21T05:51:59.856Z,15.05
2023-01-21T05:55:01.398Z,17.55
2023-01-21T05:57:43.760Z,16.42
2023-01-21T06:00:32.607Z,18.63
2023-01-21T06:03:15.016Z,16.05
2023-01-21T06:06:04.493Z,17.25
2023-01-21T06:08:49.770Z,18.30
2023-01-21T06:11:39.500Z,18.25
2023-01-21T06:14:28.554Z,16.52
2023-01-21T06:17:10.547Z,19.02
2023-01-21T06:19:59.486Z,18.58
2023-01-21T06:22:41.594Z,19.17
2023-01-21T06:25:30.568Z,20.33
2023-01-21T06:28:14.192Z,18.17
2023-01-21T06:31:02.586Z,19.20
2023-01-21T06:33:44.502Z,19.58
2023-01-21T06:36:33.595Z,19.45
2023-01-21T06:39:16.052Z,19.17
2023-01-21T06:42:04.711Z,19.73
2023-01-21T06:44:54.609Z,18.90
2023-01-21T06:47:36.748Z,19.58
2023-01-21T06:50:25.528Z,18.83
2023-01-21T06:53:07.714Z,18.83
2023-01-21T06:55:55.480Z,18.77
2023-01-21T06:58:37.688Z,18.33
2023-01-21T07:01:27.490Z,18.55
2023-01-21T07:04:09.716Z,18.50
2023-01-21T07:06:58.475Z,20.52
2023-01-21T07:09:40.704Z,18.30
2023-01-21T07:12:22.536Z,19.95
2023-01-21T07:15:18.744Z,19.23
2023-01-21T07:18:01.758Z,19.27
2023-01-21T07:20:50.430Z,19.75
2023-01-21T07:23:32.397Z,21.25
2023-01-21T07:26:21.556Z,18.70
2023-01-21T07:29:03.586Z,19.67
2023-01-21T07:31:52.511Z,20.58
2023-01-21T07:34:35.780Z,19.20
2023-01-21T07:37:24.463Z,17.70
2023-01-21T07:40:14.588Z,18.40
2023-01-21T07:42:59.764Z,18.33
2023-01-21T07:48:29.657Z,18.05
2023-01-21T07:51:19.549Z,19.13
2023-01-21T07:54:03.733Z,18.95
2023-01-21T07:56:51.487Z,19.83
2023-01-21T07:59:36.714Z,18.98
2023-01-21T08:02:24.607Z,19.40
2023-01-21T08:05:13.521Z,19.08
2023-01-21T08:07:59.297Z,19.10
2023-01-21T08:10:47.543Z,19.10
2023-01-21T08:13:42.608Z,18.20
2023-01-21T08:16:31.560Z,18.35
2023-01-21T08:19:14.087Z,18.17
2023-01-21T08:22:01.555Z,19.00
2023-01-21T08:24:44.868Z,20.25
2023-01-21T08:27:32.497Z,16.73
2023-01-21T08:30:15.705Z,20.10
2023-01-21T08:33:05.587Z,18.42
2023-01-21T08:35:55.487Z,18.90
2023-01-21T08:38:37.495Z,17.63
2023-01-21T08:41:27.577Z,17.20
2023-01-21T08:44:10.070Z,19.08
2023-01-21T08:46:58.560Z,17.17
2023-01-21T08:49:40.492Z,18.40
2023-01-21T08:52:29.599Z,18.27
2023-01-21T08:55:11.601Z,18.75
2023-01-21T08:58:02.544Z,17.85
2023-01-21T09:03:40.619Z,15.77
2023-01-21T09:06:29.573Z,17.73
2023-01-21T09:09:12.394Z,17.98
2023-01-21T09:12:01.560Z,19.65
2023-01-21T09:14:51.812Z,16.58
2023-01-21T09:17:34.511Z,19.65
2023-01-21T09:20:16.645Z,26.27
2023-01-21T09:23:05.579Z,19.15
2023-01-21T09:25:47.608Z,19.02
2023-01-21T09:28:37.494Z,18.17
2023-01-21T09:31:34.519Z,19.58
2023-01-21T09:34:16.498Z,18.83
2023-01-21T09:37:06.547Z,19.88
2023-01-21T09:39:49.246Z,18.33
2023-01-21T09:42:41.594Z,19.67
2023-01-21T09:45:24.142Z,17.73
2023-01-21T09:48:14.584Z,16.85
2023-01-21T09:53:52.517Z,16.85
2023-01-21T09:56:43.896Z,23.60
2023-01-21T09:59:40.619Z,19.02
2023-01-21T10:02:36.626Z,19.52
2023-01-21T10:05:37.797Z,21.15
2023-01-21T10:08:33.521Z,18.77
2023-01-21T10:11:31.762Z,19.77
2023-01-21T10:14:51.646Z,17.42
2023-01-21T10:17:41.731Z,19.35
2023-01-21T10:20:35.580Z,20.63
2023-01-21T10:23:26.827Z,20.15
2023-01-21T10:26:17.599Z,16.38
2023-01-21T10:29:03.048Z,18.40
2023-01-21T10:34:44.518Z,18.33
2023-01-21T10:37:37.054Z,16.85
2023-01-21T10:40:49.524Z,17.60
2023-01-21T10:43:42.128Z,18.13
2023-01-21T10:46:38.587Z,17.58
2023-01-21T10:49:28.638Z,19.55
2023-01-21T10:52:23.614Z,19.10
2023-01-21T10:55:20.266Z,19.42
2023-01-21T10:58:15.594Z,19.27
2023-01-21T11:01:00.464Z,20.45
2023-01-21T11:06:49.591Z,18.23
2023-01-21T11:09:34.132Z,19.95
2023-01-21T11:12:26.533Z,20.23
2023-01-21T11:15:22.867Z,18.73
2023-01-21T11:18:05.554Z,18.48
2023-01-21T11:20:48.049Z,18.23
2023-01-21T11:23:42.525Z,17.98
2023-01-21T11:26:28.704Z,15.35
2023-01-21T11:29:24.638Z,17.83
2023-01-21T11:32:18.354Z,16.70
2023-01-21T11:35:15.537Z,18.65
2023-01-21T11:38:03.523Z,17.98
2023-01-21T11:40:45.755Z,17.95
2023-01-21T11:43:43.617Z,18.55
2023-01-21T11:46:36.722Z,18.88
2023-01-21T11:49:34.626Z,18.73
2023-01-21T11:52:27.778Z,18.63
2023-01-21T11:55:27.544Z,18.30
2023-01-21T11:58:09.794Z,16.88
2023-01-21T12:01:01.538Z,17.98
2023-01-21T12:03:57.553Z,20.88
2023-01-21T12:06:48.147Z,20.45
2023-01-21T12:09:36.576Z,19.90
2023-01-21T12:12:33.193Z,17.48
2023-01-21T12:15:34.591Z,18.88
2023-01-21T12:18:27.383Z,19.58
2023-01-21T12:21:20.559Z,18.05
2023-01-21T12:24:22.612Z,18.40
2023-01-21T12:27:11.837Z,18.63
2023-01-21T12:30:13.538Z,19.65
2023-01-21T12:33:00.783Z,17.33
2023-01-21T12:35:53.544Z,18.20
2023-01-21T12:38:41.773Z,17.33
2023-01-21T12:41:34.561Z,18.45
2023-01-21T12:44:27.718Z,22.05
2023-01-21T12:47:25.647Z,19.75
2023-01-21T12:50:29.575Z,19.73
2023-01-21T12:53:24.099Z,21.33
2023-01-21T12:56:31.546Z,19.15
2023-01-21T12:59:19.608Z,22.13
2023-01-21T13:02:13.647Z,20.27
2023-01-21T13:04:59.624Z,21.58
2023-01-21T13:07:57.636Z,20.48
2023-01-21T13:10:43.775Z,18.52
2023-01-21T13:13:38.566Z,19.45
2023-01-21T13:16:21.835Z,18.77
2023-01-21T13:19:03.567Z,19.13
2023-01-21T13:21:50.806Z,18.73
2023-01-21T13:24:42.609Z,20.58
2023-01-21T13:27:28.844Z,20.30
2023-01-21T13:30:30.586Z,20.42
2023-01-21T13:33:37.687Z,21.23
2023-01-21T13:36:47.827Z,20.13
2023-01-21T13:39:36.548Z,19.90
2023-01-21T13:42:38.603Z,19.20
2023-01-21T13:45:39.637Z,18.95
2023-01-21T13:48:41.720Z,19.30
2023-01-21T13:51:44.647Z,18.65
2023-01-21T13:54:41.580Z,19.20
2023-01-21T14:00:30.164Z,20.10
2023-01-21T14:03:26.682Z,17.40
2023-01-21T14:06:12.046Z,18.38
2023-01-21T14:11:54.663Z,18.80
2023-01-21T14:15:25.051Z,18.38
2023-01-21T14:18:42.699Z,18.88
2023-01-21T14:21:44.843Z,18.67
2023-01-21T14:24:51.661Z,23.15
2023-01-21T14:27:40.840Z,18.08
2023-01-21T14:30:34.615Z,18.00
2023-01-21T14:33:22.925Z,19.63
2023-01-21T14:36:15.634Z,18.35
2023-01-21T14:39:08.598Z,17.15
2023-01-21T14:42:09.642Z,18.20
2023-01-21T14:45:15.832Z,17.40
2023-01-21T14:48:03.841Z,18.58
2023-01-21T14:50:59.784Z,18.80
2023-01-21T14:53:47.718Z,16.83
2023-01-21T14:56:39.665Z,18.88
2023-01-21T14:59:35.329Z,15.50
2023-01-21T15:02:43.668Z,17.38
2023-01-21T15:05:27.680Z,16.80
2023-01-21T15:08:26.673Z,14.82
2023-01-21T15:11:16.552Z,17.08
2023-01-21T15:14:19.602Z,15.82
2023-01-21T15:17:08.596Z,16.13
2023-01-21T15:19:50.837Z,17.98
2023-01-21T15:22:54.750Z,16.20
2023-01-21T15:25:38.855Z,16.73
2023-01-21T15:28:50.693Z,16.02
2023-01-21T15:31:49.965Z,17.30
2023-01-21T15:34:41.692Z,17.52
2023-01-21T15:37:27.841Z,15.13
2023-01-21T15:40:25.707Z,18.35
2023-01-21T15:43:11.902Z,15.20
2023-01-21T15:46:08.775Z,14.57
2023-01-21T15:49:07.839Z,15.13
2023-01-21T15:52:05.598Z,15.70
2023-01-21T15:54:57.765Z,15.52
2023-01-21T15:57:55.621Z,15.30
2023-01-21T16:00:48.588Z,16.02
2023-01-21T16:03:34.134Z,15.68
2023-01-21T16:09:21.318Z,20.60
2023-01-21T16:15:19.787Z,16.33
2023-01-21T16:18:18.639Z,17.77
2023-01-21T16:21:03.786Z,16.20
2023-01-21T16:26:35.805Z,18.80
2023-01-21T16:29:24.710Z,18.30
2023-01-21T16:32:06.858Z,13.80
2023-01-21T16:34:56.640Z,18.23
2023-01-21T16:37:46.628Z,18.65
2023-01-21T16:40:30.709Z,16.13
2023-01-21T16:43:28.599Z,16.75
2023-01-21T16:46:24.892Z,15.48
2023-01-21T16:49:14.620Z,16.73
2023-01-21T16:52:00.136Z,14.38
2023-01-21T16:55:00.724Z,15.15
2023-01-21T16:57:50.470Z,16.27
2023-01-21T17:00:41.607Z,16.88
2023-01-21T17:03:24.361Z,16.85
2023-01-21T17:06:16.591Z,16.70
2023-01-21T17:09:10.621Z,16.45
2023-01-21T17:11:54.760Z,16.88
2023-01-21T17:14:44.726Z,16.80
2023-01-21T17:17:29.897Z,15.75
2023-01-21T17:23:16.857Z,16.33
2023-01-21T17:26:10.628Z,15.07
2023-01-21T17:28:57.439Z,17.38
2023-01-21T17:31:47.870Z,18.17
2023-01-21T17:34:39.702Z,18.33
2023-01-21T17:37:44.388Z,17.92
2023-01-21T17:40:44.721Z,19.13
2023-01-21T17:43:28.337Z,17.88
2023-01-21T17:46:19.686Z,17.73
2023-01-21T17:49:08.471Z,19.33
2023-01-21T17:51:57.709Z,16.83
2023-01-21T17:54:46.649Z,20.13
2023-01-21T17:57:47.687Z,19.77
2023-01-21T18:00:37.820Z,19.17
2023-01-21T18:03:27.636Z,20.35
2023-01-21T18:06:17.692Z,19.55
2023-01-21T18:09:06.660Z,18.55
2023-01-21T18:11:49.125Z,18.38
2023-01-21T18:14:39.670Z,19.85
2023-01-21T18:20:13.652Z,16.50
2023-01-21T18:23:03.745Z,19.27
2023-01-21T18:25:48.711Z,20.40
2023-01-21T18:31:20.363Z,17.88
2023-01-21T18:34:12.748Z,19.35
2023-01-21T18:36:57.821Z,20.20
2023-01-21T18:42:30.960Z,17.17
2023-01-21T18:45:22.785Z,19.48
2023-01-21T18:48:15.406Z,18.88
2023-01-21T18:50:58.256Z,18.67
2023-01-21T18:53:48.773Z,19.25
2023-01-21T18:59:24.689Z,16.23
2023-01-21T19:02:11.119Z,16.75
2023-01-21T19:05:00.730Z,18.73
2023-01-21T19:07:44.893Z,16.38
2023-01-21T19:10:34.723Z,17.50
2023-01-21T19:13:16.847Z,19.73
2023-01-21T19:16:12.817Z,19.63
2023-01-21T19:19:03.226Z,16.23
2023-01-21T19:21:46.903Z,15.98
2023-01-21T19:24:36.697Z,17.17
2023-01-21T19:27:23.983Z,17.05
2023-01-21T19:30:26.671Z,17.52
2023-01-21T19:33:09.108Z,17.48
2023-01-21T19:35:59.744Z,16.05
2023-01-21T19:41:31.939Z,14.38
2023-01-21T19:44:20.684Z,15.95
2023-01-21T19:47:03.048Z,16.52
2023-01-21T19:49:51.674Z,16.85
2023-01-21T19:52:35.843Z,14.77
2023-01-21T19:55:28.708Z,16.10
2023-01-21T19:58:19.629Z,15.95
2023-01-21T20:04:00.137Z,15.30
2023-01-21T20:06:46.731Z,16.92
2023-01-21T20:09:35.687Z,17.27
2023-01-21T20:12:17.669Z,17.58
2023-01-21T20:15:07.693Z,14.68
2023-01-21T20:17:52.503Z,16.50
2023-01-21T20:20:43.687Z,15.32
2023-01-21T20:26:16.818Z,14.15
2023-01-21T20:29:03.457Z,15.82
2023-01-21T20:31:52.802Z,14.88
2023-01-21T20:34:34.967Z,15.18
2023-01-21T20:37:24.744Z,16.83
2023-01-21T20:40:20.689Z,17.63
2023-01-21T20:43:04.261Z,14.88
2023-01-21T20:45:56.666Z,17.75
2023-01-21T20:48:42.782Z,16.75
2023-01-21T20:51:31.674Z,16.35
2023-01-21T20:54:13.665Z,17.55
2023-01-21T20:57:04.736Z,16.33
2023-01-21T20:59:46.780Z,16.88
2023-01-21T21:02:35.843Z,16.88
2023-01-21T21:05:19.976Z,16.35
2023-01-21T21:08:08.667Z,15.38
2023-01-21T21:10:59.693Z,14.93
2023-01-21T21:13:41.912Z,14.30
2023-01-21T21:16:32.774Z,11.98
2023-01-21T21:19:17.197Z,15.48
2023-01-21T21:22:06.701Z,14.15
2023-01-21T21:24:48.957Z,15.40
2023-01-21T21:27:36.672Z,15.63
2023-01-21T21:30:23.979Z,16.23
2023-01-21T21:33:13.702Z,15.18
2023-01-21T21:36:03.686Z,15.45
2023-01-21T21:38:48.351Z,14.95
2023-01-21T21:41:57.706Z,15.55
2023-01-21T21:44:42.317Z,16.17
2023-01-21T21:47:47.754Z,12.57
2023-01-21T21:50:29.619Z,17.65
2023-01-21T21:53:18.729Z,12.88
2023-01-21T21:56:04.234Z,12.00
2023-01-21T22:01:42.706Z,13.70
2023-01-21T22:04:25.246Z,15.13
2023-01-21T22:07:13.756Z,15.38
2023-01-21T22:09:55.982Z,14.73
2023-01-21T22:12:45.708Z,14.32
2023-01-21T22:15:28.052Z,13.10
2023-01-21T22:18:15.800Z,16.67
2023-01-21T22:20:57.987Z,12.10
2023-01-21T22:23:46.790Z,12.98
2023-01-21T22:26:30.968Z,14.48
2023-01-21T22:29:20.757Z,15.52
2023-01-21T22:32:10.719Z,15.02
2023-01-21T22:34:52.776Z,14.45
2023-01-21T22:37:41.769Z,15.45
2023-01-21T22:40:23.889Z,16.52
2023-01-21T22:43:12.694Z,16.92
2023-01-21T22:46:00.604Z,14.85
2023-01-21T22:48:49.743Z,16.10
2023-01-21T22:51:31.763Z,15.60
2023-01-21T22:54:20.698Z,15.80
2023-01-21T22:57:15.840Z,16.00
2023-01-21T22:59:57.771Z,15.27
2023-01-21T23:02:47.698Z,12.90
2023-01-21T23:05:30.185Z,14.20
2023-01-21T23:08:18.756Z,12.15
2023-01-21T23:11:02.475Z,11.55
2023-01-21T23:13:50.825Z,13.77
2023-01-21T23:16:45.747Z,14.18
2023-01-21T23:19:35.804Z,13.32
2023-01-21T23:22:24.696Z,13.90
2023-01-21T23:25:07.724Z,15.90
2023-01-21T23:27:56.735Z,24.05
2023-01-21T23:30:38.752Z,26.60
2023-01-21T23:33:27.768Z,22.85
2023-01-21T23:36:13.264Z,16.75
2023-01-21T23:39:02.824Z,14.50
2023-01-21T23:41:44.785Z,15.13
2023-01-21T23:44:33.743Z,13.18
2023-01-21T23:47:18.462Z,12.38
2023-01-21T23:49:59.764Z,13.88
2023-01-21T23:52:50.833Z,13.82
2023-01-21T23:55:32.769Z,14.18
2023-01-21T23:58:21.814Z,13.75
